Time;durP1;ratioP1;P1;durP2;ratioP2;P2;SDS_P1;SDS_P2;PMS_P1;PMS_P2;Temp;Humidity;BMP_temperature;BMP_pressure;BME280_temperature;BME280_humidity;BME280_pressure;Samples;Min_cycle;Max_cycle;Signal;HPM_P1;HPM_P2
2023/03/05 00:00:39;;;;;;;7.77;2.10;;;4.50;99.90;;;;;;5023919;28;20202;-71
2023/03/05 00:03:06;;;;;;;3.23;1.97;;;4.50;99.90;;;;;;5043256;28;20726;-71
2023/03/05 00:05:33;;;;;;;7.70;1.97;;;4.50;99.90;;;;;;5040307;28;20305;-72
2023/03/05 00:08:00;;;;;;;4.73;1.70;;;4.50;99.90;;;;;;5025239;28;20209;-71
2023/03/05 00:10:27;;;;;;;9.30;2.17;;;4.50;99.90;;;;;;5039743;28;20277;-73
2023/03/05 00:12:53;;;;;;;5.37;1.97;;;4.50;99.90;;;;;;5024944;28;20659;-72
2023/03/05 00:15:20;;;;;;;5.10;2.07;;;4.60;99.90;;;;;;5022837;28;20216;-72
2023/03/05 00:17:47;;;;;;;8.03;2.50;;;4.60;99.90;;;;;;5043130;28;20217;-70
2023/03/05 00:20:14;;;;;;;5.07;1.90;;;4.60;99.90;;;;;;5040131;28;20229;-71
2023/03/05 00:22:40;;;;;;;5.57;1.93;;;4.60;99.90;;;;;;5043193;28;20243;-71
2023/03/05 00:25:08;;;;;;;6.00;1.60;;;4.60;99.90;;;;;;5039472;28;20293;-72
2023/03/05 00:27:34;;;;;;;6.63;2.30;;;4.60;99.90;;;;;;5042885;28;20299;-70
2023/03/05 00:30:01;;;;;;;5.23;1.80;;;4.60;99.90;;;;;;5041019;28;20208;-71
2023/03/05 00:32:28;;;;;;;7.37;1.87;;;4.60;99.90;;;;;;5041766;28;20782;-72
2023/03/05 00:34:55;;;;;;;5.43;1.87;;;4.60;99.90;;;;;;5042176;28;20227;-71
2023/03/05 00:37:21;;;;;;;7.03;1.93;;;4.60;99.90;;;;;;5038910;28;20218;-71
2023/03/05 00:39:48;;;;;;;8.97;2.07;;;4.60;99.90;;;;;;5038842;28;20217;-72
2023/03/05 00:42:15;;;;;;;7.37;2.53;;;4.60;99.90;;;;;;5040126;28;20268;-71
2023/03/05 00:44:41;;;;;;;9.00;2.33;;;4.60;99.90;;;;;;5039084;28;20267;-71
2023/03/05 00:47:08;;;;;;;10.70;2.57;;;4.50;99.90;;;;;;5041634;28;20242;-71
2023/03/05 00:49:35;;;;;;;7.20;3.10;;;4.50;99.90;;;;;;5025093;28;20217;-71
2023/03/05 00:52:01;;;;;;;8.97;2.50;;;4.50;99.90;;;;;;5041840;28;20213;-71
2023/03/05 00:54:28;;;;;;;10.10;2.43;;;4.50;99.90;;;;;;5040270;28;20755;-74
2023/03/05 00:56:55;;;;;;;8.63;2.90;;;4.50;99.90;;;;;;5041039;28;20209;-70
2023/03/05 00:59:21;;;;;;;7.67;2.83;;;4.50;99.90;;;;;;5040775;28;20205;-72
2023/03/05 01:01:48;;;;;;;7.93;2.70;;;4.50;99.90;;;;;;5041614;28;20222;-70
2023/03/05 01:04:15;;;;;;;8.53;3.20;;;4.50;99.90;;;;;;5023984;28;20340;-73
2023/03/05 01:06:43;;;;;;;7.43;2.90;;;4.50;99.90;;;;;;5023941;28;20210;-72
2023/03/05 01:09:10;;;;;;;14.73;3.53;;;4.50;99.90;;;;;;5039106;28;20551;-71
2023/03/05 01:11:37;;;;;;;5.63;2.53;;;4.50;99.90;;;;;;5040414;28;20243;-71
2023/03/05 01:14:04;;;;;;;6.47;2.80;;;4.50;99.90;;;;;;5040425;28;20229;-72
2023/03/05 01:16:30;;;;;;;8.20;2.83;;;4.50;99.90;;;;;;5024818;28;20721;-73
2023/03/05 01:18:57;;;;;;;8.67;2.70;;;4.40;99.90;;;;;;5041460;28;20270;-70
2023/03/05 01:21:24;;;;;;;12.83;2.97;;;4.50;99.90;;;;;;5041808;28;20205;-72
2023/03/05 01:23:51;;;;;;;7.90;3.07;;;4.40;99.90;;;;;;5038512;28;20209;-70
2023/03/05 01:26:18;;;;;;;7.60;2.53;;;4.50;99.90;;;;;;5041743;28;20200;-70
2023/03/05 01:28:44;;;;;;;8.60;2.67;;;4.50;99.90;;;;;;5041968;28;20297;-70
2023/03/05 01:31:11;;;;;;;8.87;2.50;;;4.50;99.90;;;;;;5041929;28;20291;-71
2023/03/05 01:33:39;;;;;;;13.60;4.23;;;4.50;99.90;;;;;;5041674;28;20255;-71
2023/03/05 01:36:12;;;;;;;9.80;3.20;;;4.50;99.90;;;;;;5037963;28;20219;-70
2023/03/05 01:38:39;;;;;;;10.50;2.87;;;4.50;99.90;;;;;;5039639;28;20252;-72
2023/03/05 01:41:07;;;;;;;8.73;2.40;;;4.50;99.90;;;;;;5040509;28;20538;-71
2023/03/05 01:43:34;;;;;;;6.97;2.60;;;4.50;99.90;;;;;;5038146;28;20232;-72
2023/03/05 01:46:20;;;;;;;8.00;2.60;;;4.60;99.90;;;;;;5030422;28;20204;-72
2023/03/05 01:49:08;;;;;;;8.70;2.63;;;4.60;99.90;;;;;;5041068;28;20789;-72
2023/03/05 01:52:00;;;;;;;9.63;2.10;;;4.50;99.90;;;;;;5029764;28;20237;-71
2023/03/05 01:54:42;;;;;;;7.00;2.50;;;4.50;99.90;;;;;;5041010;28;20642;-70
2023/03/05 01:57:15;;;;;;;4.13;2.27;;;4.50;99.90;;;;;;5040108;28;20260;-71
2023/03/05 01:59:44;;;;;;;8.57;2.43;;;4.40;99.90;;;;;;5039805;28;20245;-69
2023/03/05 02:02:12;;;;;;;5.00;2.90;;;4.50;99.90;;;;;;5022490;28;20771;-70
2023/03/05 02:04:45;;;;;;;11.40;2.17;;;4.50;99.90;;;;;;5039093;28;20316;-72
2023/03/05 02:07:14;;;;;;;10.10;2.20;;;4.50;99.90;;;;;;5025424;28;20228;-71
2023/03/05 02:09:41;;;;;;;8.67;2.53;;;4.50;99.90;;;;;;5038787;28;20194;-72
2023/03/05 02:12:10;;;;;;;10.03;3.10;;;4.50;99.90;;;;;;5041919;28;20231;-71
2023/03/05 02:14:39;;;;;;;4.27;1.73;;;4.50;99.90;;;;;;5023770;28;20205;-71
2023/03/05 02:17:06;;;;;;;8.60;2.37;;;4.50;99.90;;;;;;5024164;28;20251;-70
2023/03/05 02:19:55;;;;;;;8.80;2.17;;;4.50;99.90;;;;;;5004287;28;20202;-72
2023/03/05 02:22:23;;;;;;;6.47;2.30;;;4.50;99.90;;;;;;5038168;28;20287;-71
2023/03/05 02:24:50;;;;;;;6.73;2.50;;;4.50;99.90;;;;;;5025168;28;20211;-70
2023/03/05 02:27:21;;;;;;;8.53;2.93;;;4.50;99.90;;;;;;5041530;28;20233;-72
2023/03/05 02:29:49;;;;;;;7.10;2.40;;;4.40;99.90;;;;;;5039753;28;20256;-71
2023/03/05 02:32:16;;;;;;;9.53;2.60;;;4.40;99.90;;;;;;5036216;28;20289;-71
2023/03/05 02:34:43;;;;;;;10.77;2.60;;;4.40;99.90;;;;;;5041191;28;20300;-71
2023/03/05 02:37:10;;;;;;;14.23;2.60;;;4.40;99.90;;;;;;5039668;28;20226;-71
2023/03/05 02:39:36;;;;;;;6.97;2.13;;;4.50;99.90;;;;;;5043561;28;20245;-71
2023/03/05 02:42:03;;;;;;;8.40;2.63;;;4.40;99.90;;;;;;5043175;28;20261;-73
2023/03/05 02:44:30;;;;;;;9.33;2.40;;;4.40;99.90;;;;;;5041100;28;20219;-71
2023/03/05 02:46:57;;;;;;;8.87;2.30;;;4.40;99.90;;;;;;5041943;28;20209;-71
2023/03/05 02:49:23;;;;;;;9.67;2.60;;;4.40;99.90;;;;;;5044718;28;20228;-71
2023/03/05 02:51:50;;;;;;;12.80;2.90;;;4.40;99.90;;;;;;5041336;28;20702;-71
2023/03/05 02:54:17;;;;;;;9.33;2.70;;;4.40;99.90;;;;;;5043379;28;20244;-72
2023/03/05 02:56:44;;;;;;;9.33;2.60;;;4.40;99.90;;;;;;5044526;28;20698;-70
2023/03/05 02:59:10;;;;;;;10.70;2.53;;;4.30;99.90;;;;;;5043136;28;20206;-72
2023/03/05 03:01:37;;;;;;;9.63;2.80;;;4.30;99.90;;;;;;5040462;28;20205;-71
2023/03/05 03:04:04;;;;;;;12.53;3.40;;;4.30;99.90;;;;;;5026929;28;20229;-70
2023/03/05 03:06:31;;;;;;;7.83;3.07;;;4.30;99.90;;;;;;5044516;28;20205;-71
2023/03/05 03:08:58;;;;;;;10.50;3.27;;;4.30;99.90;;;;;;5042486;28;20218;-71
2023/03/05 03:11:25;;;;;;;9.03;3.20;;;4.30;99.90;;;;;;5043163;28;20284;-71
2023/03/05 03:13:51;;;;;;;12.83;3.70;;;4.30;99.90;;;;;;5041787;28;20295;-71
2023/03/05 03:16:18;;;;;;;16.47;3.73;;;4.20;99.90;;;;;;5040749;28;20284;-71
2023/03/05 03:18:47;;;;;;;10.43;4.53;;;4.30;99.90;;;;;;5040498;28;20227;-71
2023/03/05 03:21:24;;;;;;;10.07;3.23;;;4.30;99.90;;;;;;5042437;28;20658;-71
2023/03/05 03:23:50;;;;;;;12.27;3.77;;;4.30;99.90;;;;;;5025467;28;20231;-70
2023/03/05 03:26:17;;;;;;;10.63;4.23;;;4.30;99.90;;;;;;5041810;28;20210;-71
2023/03/05 03:28:44;;;;;;;10.47;4.40;;;4.30;99.90;;;;;;5040613;28;20208;-70
2023/03/05 03:31:11;;;;;;;11.23;4.33;;;4.30;99.90;;;;;;5041407;28;20297;-70
2023/03/05 03:33:38;;;;;;;9.17;3.50;;;4.30;99.90;;;;;;5041931;28;20672;-71
2023/03/05 03:36:06;;;;;;;6.77;3.40;;;4.30;99.90;;;;;;5042573;28;20665;-71
2023/03/05 03:38:32;;;;;;;7.73;4.07;;;4.30;99.90;;;;;;5040081;28;20666;-70
2023/03/05 03:40:59;;;;;;;10.83;4.17;;;4.30;99.90;;;;;;5022616;28;20228;-70
2023/03/05 03:43:26;;;;;;;11.83;3.93;;;4.30;99.90;;;;;;5026355;28;20231;-71
2023/03/05 03:45:52;;;;;;;13.10;4.40;;;4.30;99.90;;;;;;5041478;28;20212;-71
2023/03/05 03:48:19;;;;;;;8.40;3.47;;;4.30;99.90;;;;;;5040396;28;20330;-71
2023/03/05 03:50:46;;;;;;;10.03;4.20;;;4.30;99.90;;;;;;5047300;28;20229;-70
2023/03/05 03:53:13;;;;;;;12.03;4.93;;;4.30;99.90;;;;;;5039849;28;20213;-71
2023/03/05 03:55:45;;;;;;;10.30;4.27;;;4.30;99.90;;;;;;5043880;28;20213;-70
2023/03/05 03:58:12;;;;;;;15.80;4.80;;;4.30;99.90;;;;;;5044150;28;20240;-71
2023/03/05 04:00:40;;;;;;;16.50;4.27;;;4.30;99.90;;;;;;5026090;28;20205;-71
2023/03/05 04:03:08;;;;;;;10.80;4.00;;;4.30;99.90;;;;;;5022172;28;20269;-71
2023/03/05 04:05:34;;;;;;;11.27;3.93;;;4.30;99.90;;;;;;5021826;28;20345;-71
2023/03/05 04:08:02;;;;;;;11.30;4.30;;;4.30;99.90;;;;;;5046056;28;20211;-71
2023/03/05 04:10:29;;;;;;;12.93;4.93;;;4.30;99.90;;;;;;5041023;28;20224;-71
2023/03/05 04:12:56;;;;;;;12.20;4.33;;;4.30;99.90;;;;;;5045514;28;20205;-71
2023/03/05 04:15:23;;;;;;;10.23;4.07;;;4.30;99.90;;;;;;5035932;28;20286;-72
2023/03/05 04:17:50;;;;;;;11.40;4.37;;;4.30;99.90;;;;;;5039168;28;20226;-70
2023/03/05 04:20:17;;;;;;;12.03;5.13;;;4.30;99.90;;;;;;5026506;28;20240;-70
2023/03/05 04:22:44;;;;;;;7.67;4.10;;;4.30;99.90;;;;;;5040293;28;20238;-71
2023/03/05 04:25:10;;;;;;;10.63;3.70;;;4.30;99.90;;;;;;5025423;28;20201;-71
2023/03/05 04:27:39;;;;;;;11.07;4.33;;;4.30;99.90;;;;;;5045165;28;20597;-71
2023/03/05 04:30:07;;;;;;;16.57;5.30;;;4.30;99.90;;;;;;5039518;28;20313;-70
2023/03/05 04:32:34;;;;;;;14.50;4.73;;;4.20;99.90;;;;;;5039343;28;20324;-70
2023/03/05 04:35:01;;;;;;;12.80;4.23;;;4.20;99.90;;;;;;5041413;28;20213;-70
2023/03/05 04:37:28;;;;;;;10.50;5.30;;;4.20;99.90;;;;;;5040109;28;20218;-71
2023/03/05 04:39:54;;;;;;;11.67;3.97;;;4.10;99.90;;;;;;5040316;28;20209;-70
2023/03/05 04:42:21;;;;;;;14.27;4.20;;;4.10;99.90;;;;;;5045767;28;20227;-70
2023/03/05 04:44:49;;;;;;;9.57;4.23;;;4.10;99.90;;;;;;5038682;28;20216;-70
2023/03/05 04:47:16;;;;;;;8.97;4.33;;;4.20;99.90;;;;;;5041797;28;20237;-70
2023/03/05 04:49:44;;;;;;;9.27;4.20;;;4.10;99.90;;;;;;5040453;28;20205;-71
2023/03/05 04:52:12;;;;;;;8.27;4.00;;;4.10;99.90;;;;;;5022745;28;20201;-71
2023/03/05 04:54:38;;;;;;;8.17;4.37;;;4.10;99.90;;;;;;5041804;28;20190;-70
2023/03/05 04:57:05;;;;;;;11.73;4.83;;;4.10;99.90;;;;;;5042407;28;20223;-71
2023/03/05 04:59:32;;;;;;;15.33;5.53;;;4.10;99.90;;;;;;5037550;28;20297;-71
2023/03/05 05:01:59;;;;;;;9.50;4.67;;;4.10;99.90;;;;;;5023603;28;20221;-71
2023/03/05 05:04:26;;;;;;;11.13;5.13;;;4.10;99.90;;;;;;5040097;28;20263;-70
2023/03/05 05:06:57;;;;;;;14.13;4.57;;;4.10;99.90;;;;;;5040329;28;20226;-71
2023/03/05 05:09:24;;;;;;;12.67;4.93;;;4.10;99.90;;;;;;5041952;28;20213;-71
2023/03/05 05:11:51;;;;;;;7.43;4.53;;;4.10;99.90;;;;;;5024142;28;20616;-70
2023/03/05 05:14:18;;;;;;;9.30;3.90;;;4.10;99.90;;;;;;5042319;28;20588;-72
2023/03/05 05:16:45;;;;;;;11.40;4.20;;;4.10;99.90;;;;;;5039989;28;20301;-71
2023/03/05 05:19:11;;;;;;;9.53;4.63;;;4.10;99.90;;;;;;5040659;28;20227;-70
2023/03/05 05:21:38;;;;;;;11.03;4.90;;;4.00;99.90;;;;;;5038763;28;20586;-72
2023/03/05 05:24:05;;;;;;;9.63;4.70;;;4.10;99.90;;;;;;5041912;28;20516;-72
2023/03/05 05:26:32;;;;;;;14.90;5.40;;;4.10;99.90;;;;;;5037537;28;20219;-74
2023/03/05 05:28:59;;;;;;;11.33;4.97;;;4.10;99.90;;;;;;5037910;28;20205;-71
2023/03/05 05:31:26;;;;;;;8.90;4.80;;;4.10;99.90;;;;;;5039890;28;20242;-71
2023/03/05 05:33:52;;;;;;;11.47;4.43;;;4.10;99.90;;;;;;5040973;28;20228;-71
2023/03/05 05:36:21;;;;;;;13.47;6.03;;;4.10;99.90;;;;;;5038563;28;20216;-71
2023/03/05 05:38:47;;;;;;;14.80;5.23;;;4.00;99.90;;;;;;5029808;28;20658;-72
2023/03/05 05:41:17;;;;;;;16.47;4.77;;;3.90;99.90;;;;;;5039980;28;20214;-72
2023/03/05 05:43:43;;;;;;;8.27;5.07;;;3.90;99.90;;;;;;5039932;28;20372;-72
2023/03/05 05:46:17;;;;;;;10.67;4.70;;;3.80;99.90;;;;;;5040723;28;20284;-70
2023/03/05 05:48:44;;;;;;;11.13;5.90;;;3.80;99.90;;;;;;5030074;28;20229;-71
2023/03/05 05:51:14;;;;;;;14.23;6.70;;;3.70;99.90;;;;;;5029777;28;20237;-70
2023/03/05 05:53:41;;;;;;;16.33;7.50;;;3.70;99.90;;;;;;5029942;28;20625;-71
2023/03/05 05:56:10;;;;;;;15.07;6.70;;;3.60;99.90;;;;;;5040589;28;20211;-71
2023/03/05 05:58:37;;;;;;;14.27;7.13;;;3.60;99.90;;;;;;5037636;28;20209;-71
2023/03/05 06:01:32;;;;;;;11.47;6.80;;;3.40;99.90;;;;;;5023848;28;20240;-71
2023/03/05 06:03:59;;;;;;;14.77;7.13;;;3.60;99.90;;;;;;5034430;28;20705;-70
2023/03/05 06:06:27;;;;;;;10.90;6.80;;;3.60;99.90;;;;;;5045222;28;20197;-73
2023/03/05 06:08:55;;;;;;;10.63;7.03;;;3.60;99.90;;;;;;5038644;28;20292;-71
2023/03/05 06:11:22;;;;;;;14.87;6.90;;;3.60;99.90;;;;;;5040433;28;20213;-70
2023/03/05 06:13:49;;;;;;;13.17;6.50;;;3.70;99.90;;;;;;5049132;28;20248;-71
2023/03/05 06:16:18;;;;;;;13.30;6.83;;;3.70;99.90;;;;;;5033499;28;20202;-71
2023/03/05 06:18:45;;;;;;;16.33;7.57;;;3.70;99.90;;;;;;5042725;28;20724;-71
2023/03/05 06:21:15;;;;;;;11.77;6.50;;;3.70;99.90;;;;;;5043913;28;20204;-73
2023/03/05 06:23:42;;;;;;;12.50;7.33;;;3.80;99.90;;;;;;5033354;28;20234;-71
2023/03/05 06:26:12;;;;;;;12.97;7.13;;;3.80;99.90;;;;;;5045069;28;20249;-71
2023/03/05 06:28:39;;;;;;;14.33;7.13;;;3.80;99.90;;;;;;5031818;28;20863;-71
2023/03/05 06:31:11;;;;;;;13.53;8.80;;;3.90;99.90;;;;;;5030782;28;20207;-72
2023/03/05 06:33:38;;;;;;;14.67;9.00;;;3.90;99.90;;;;;;5043884;28;20221;-71
2023/03/05 06:36:07;;;;;;;17.50;10.00;;;3.90;99.90;;;;;;5039708;28;20205;-72
2023/03/05 06:38:35;;;;;;;15.07;9.17;;;3.90;99.90;;;;;;5035599;28;20224;-71
2023/03/05 06:41:04;;;;;;;13.60;7.63;;;3.90;99.90;;;;;;5042253;28;20252;-71
2023/03/05 06:43:32;;;;;;;10.47;6.10;;;4.00;99.90;;;;;;5047041;28;20244;-70
2023/03/05 06:46:04;;;;;;;12.73;5.33;;;4.00;99.90;;;;;;5026587;28;20194;-71
2023/03/05 06:48:31;;;;;;;12.40;4.97;;;4.00;99.90;;;;;;5043399;28;20222;-71
2023/03/05 06:50:58;;;;;;;9.57;5.10;;;4.00;99.90;;;;;;5043669;28;20288;-70
2023/03/05 06:53:25;;;;;;;9.00;4.87;;;4.10;99.90;;;;;;5030334;28;20212;-71
2023/03/05 06:55:52;;;;;;;12.30;5.30;;;4.10;99.90;;;;;;5044870;28;20299;-70
2023/03/05 06:58:19;;;;;;;7.47;5.00;;;4.20;99.90;;;;;;5045960;28;20288;-72
2023/03/05 07:00:46;;;;;;;9.00;5.43;;;4.20;99.90;;;;;;5045713;28;20638;-70
2023/03/05 07:03:13;;;;;;;9.20;5.17;;;4.20;99.90;;;;;;5040862;28;20249;-71
2023/03/05 07:05:42;;;;;;;13.30;5.87;;;4.30;99.90;;;;;;5048253;28;20235;-70
2023/03/05 07:08:08;;;;;;;11.10;6.03;;;4.20;99.90;;;;;;5019276;28;20200;-72
2023/03/05 07:10:38;;;;;;;7.97;5.90;;;4.30;99.90;;;;;;5044890;28;20256;-71
2023/03/05 07:13:05;;;;;;;11.23;6.17;;;4.40;99.90;;;;;;5041905;28;20205;-71
2023/03/05 07:15:32;;;;;;;14.83;6.93;;;4.40;99.90;;;;;;5042943;28;20213;-71
2023/03/05 07:17:59;;;;;;;12.03;7.20;;;4.50;99.90;;;;;;5045980;28;20223;-71
2023/03/05 07:20:25;;;;;;;12.50;7.40;;;4.50;99.90;;;;;;5038648;28;20202;-71
2023/03/05 07:22:52;;;;;;;13.43;7.63;;;4.50;99.90;;;;;;5041532;28;20208;-69
2023/03/05 07:25:20;;;;;;;13.80;8.23;;;4.50;99.90;;;;;;5042533;28;20248;-71
2023/03/05 07:27:47;;;;;;;13.03;7.80;;;4.50;99.90;;;;;;5028408;28;20203;-71
2023/03/05 07:30:14;;;;;;;15.70;8.63;;;4.60;99.90;;;;;;5044786;28;20552;-71
2023/03/05 07:32:41;;;;;;;17.27;9.60;;;4.60;99.90;;;;;;5040095;28;20304;-70
2023/03/05 07:35:08;;;;;;;18.83;9.40;;;4.70;99.90;;;;;;5043802;28;20202;-71
2023/03/05 07:37:35;;;;;;;13.70;8.83;;;4.70;99.90;;;;;;5040775;28;20307;-71
2023/03/05 07:40:03;;;;;;;14.63;9.07;;;4.80;99.90;;;;;;5045212;28;20666;-71
2023/03/05 07:42:30;;;;;;;20.80;11.47;;;4.80;99.90;;;;;;5044194;28;20256;-70
2023/03/05 07:44:57;;;;;;;44.30;22.30;;;4.80;99.90;;;;;;5024904;28;20432;-70
2023/03/05 07:47:24;;;;;;;14.93;9.93;;;4.90;99.90;;;;;;5033247;28;20314;-72
2023/03/05 07:49:51;;;;;;;19.40;10.63;;;4.80;99.90;;;;;;5048543;28;20209;-70
2023/03/05 07:52:18;;;;;;;15.53;8.60;;;4.90;99.90;;;;;;5030233;28;20646;-71
2023/03/05 07:54:44;;;;;;;15.67;9.23;;;4.90;99.90;;;;;;5045719;28;20244;-70
2023/03/05 07:57:12;;;;;;;15.03;9.43;;;4.90;99.90;;;;;;5042497;28;20212;-70
2023/03/05 07:59:39;;;;;;;18.77;9.57;;;4.90;99.90;;;;;;5044895;28;20217;-70
2023/03/05 08:02:06;;;;;;;12.63;8.00;;;4.90;99.90;;;;;;5044318;28;20198;-73
2023/03/05 08:04:33;;;;;;;15.47;7.87;;;4.90;99.90;;;;;;5040637;28;20257;-71
2023/03/05 08:07:00;;;;;;;12.07;7.20;;;4.90;99.90;;;;;;5039498;28;20195;-71
2023/03/05 08:09:27;;;;;;;13.37;8.20;;;4.90;99.90;;;;;;5029220;28;20347;-71
2023/03/05 08:11:54;;;;;;;17.30;9.37;;;5.00;99.90;;;;;;5019952;28;20290;-69
2023/03/05 08:14:21;;;;;;;19.37;10.97;;;5.10;99.90;;;;;;5041336;28;20308;-70
2023/03/05 08:16:51;;;;;;;13.93;7.80;;;5.20;99.90;;;;;;5041163;28;20205;-70
2023/03/05 08:19:19;;;;;;;9.70;6.50;;;5.30;99.90;;;;;;5023318;28;20278;-72
2023/03/05 08:21:45;;;;;;;11.77;6.87;;;5.40;99.90;;;;;;5042139;28;20248;-70
2023/03/05 08:24:13;;;;;;;10.97;6.53;;;5.50;99.90;;;;;;5043221;28;20327;-69
2023/03/05 08:26:40;;;;;;;8.50;4.60;;;5.60;99.90;;;;;;5040733;28;20206;-69
2023/03/05 08:29:08;;;;;;;10.27;6.60;;;5.60;99.90;;;;;;5046877;28;20669;-72
2023/03/05 08:31:36;;;;;;;19.73;10.13;;;5.60;99.90;;;;;;5046000;28;20208;-70
2023/03/05 08:34:03;;;;;;;16.07;8.30;;;5.70;99.90;;;;;;5042556;28;20223;-70
2023/03/05 08:36:30;;;;;;;17.20;11.43;;;5.70;99.90;;;;;;5041766;28;20763;-70
2023/03/05 08:38:58;;;;;;;19.30;8.90;;;5.80;99.90;;;;;;5029131;28;20210;-71
2023/03/05 08:41:25;;;;;;;24.83;12.57;;;5.90;99.90;;;;;;5033148;28;20336;-70
2023/03/05 08:43:52;;;;;;;14.93;8.00;;;6.00;99.90;;;;;;5042604;28;20232;-71
2023/03/05 08:46:19;;;;;;;9.83;5.17;;;6.20;99.90;;;;;;5041029;28;20265;-71
2023/03/05 08:48:46;;;;;;;10.83;6.07;;;6.30;99.90;;;;;;5041156;28;20212;-72
2023/03/05 08:51:15;;;;;;;9.93;6.33;;;6.50;99.90;;;;;;5039791;28;20239;-71
2023/03/05 08:53:43;;;;;;;15.57;6.40;;;6.60;99.90;;;;;;5041100;28;20330;-71
2023/03/05 08:56:10;;;;;;;12.90;6.53;;;6.70;99.90;;;;;;5043192;28;20246;-71
2023/03/05 08:58:37;;;;;;;10.90;5.17;;;6.80;99.90;;;;;;5036890;28;20283;-70
2023/03/05 09:01:04;;;;;;;10.47;5.27;;;6.80;99.90;;;;;;5039461;28;20680;-70
2023/03/05 09:03:31;;;;;;;8.53;4.57;;;6.90;99.90;;;;;;5020449;28;20597;-70
2023/03/05 09:06:00;;;;;;;7.53;3.37;;;7.00;99.90;;;;;;5004489;28;1053941;-70
2023/03/05 09:08:28;;;;;;;8.57;3.67;;;7.10;99.90;;;;;;5038678;28;20212;-70
2023/03/05 09:10:55;;;;;;;5.37;4.33;;;7.20;99.90;;;;;;5043574;28;20244;-71
2023/03/05 09:13:22;;;;;;;7.13;4.23;;;7.20;99.90;;;;;;5043720;28;20291;-70
2023/03/05 09:15:56;;;;;;;6.60;3.13;;;7.20;99.90;;;;;;5022289;28;20220;-70
2023/03/05 09:18:23;;;;;;;10.93;6.50;;;7.20;99.90;;;;;;5043883;28;20282;-70
2023/03/05 09:20:50;;;;;;;9.87;8.10;;;7.30;99.90;;;;;;5039572;28;20245;-70
2023/03/05 09:23:17;;;;;;;5.77;3.40;;;7.30;99.90;;;;;;5020897;28;20285;-70
2023/03/05 09:25:44;;;;;;;8.17;4.53;;;7.30;99.90;;;;;;5041829;28;20296;-71
2023/03/05 09:28:10;;;;;;;5.50;2.77;;;7.30;99.90;;;;;;5045334;28;20579;-70
2023/03/05 09:30:37;;;;;;;6.43;3.83;;;7.40;99.90;;;;;;5030049;28;20307;-70
2023/03/05 09:33:04;;;;;;;6.13;2.40;;;7.50;99.90;;;;;;5029882;28;20241;-73
2023/03/05 09:35:34;;;;;;;4.77;2.03;;;7.50;99.90;;;;;;5021585;28;20312;-70
2023/03/05 09:38:02;;;;;;;7.83;3.33;;;7.60;99.90;;;;;;5035402;28;20203;-70
2023/03/05 09:40:54;;;;;;;8.43;3.80;;;7.70;99.90;;;;;;5042817;28;20203;-71
2023/03/05 09:43:59;;;;;;;6.00;2.30;;;7.90;99.90;;;;;;5041977;28;20253;-70
2023/03/05 09:46:47;;;;;;;9.83;4.17;;;8.10;99.90;;;;;;5020373;28;20645;-71
2023/03/05 09:49:17;;;;;;;6.17;2.60;;;8.30;99.90;;;;;;5039138;28;20222;-71
2023/03/05 09:51:47;;;;;;;6.40;2.77;;;8.40;99.90;;;;;;5040690;28;20244;-71
2023/03/05 09:54:22;;;;;;;3.50;1.73;;;8.50;99.90;;;;;;5037767;28;20292;-70
2023/03/05 09:56:55;;;;;;;8.17;3.70;;;8.50;99.90;;;;;;5036876;28;20193;-70
2023/03/05 09:59:34;;;;;;;27.97;11.93;;;8.60;99.90;;;;;;5043689;28;20193;-70
2023/03/05 10:02:18;;;;;;;65.43;28.10;;;8.60;99.90;;;;;;5039915;28;20211;-71
2023/03/05 10:05:08;;;;;;;59.30;24.60;;;8.50;99.90;;;;;;5021108;28;20327;-70
2023/03/05 10:07:38;;;;;;;7.73;2.30;;;8.30;99.90;;;;;;5037592;28;20538;-70
2023/03/05 10:10:22;;;;;;;4.63;1.57;;;8.20;99.90;;;;;;5032195;28;20246;-70
2023/03/05 10:12:52;;;;;;;3.83;1.70;;;8.20;99.90;;;;;;5039143;28;20215;-72
2023/03/05 10:15:22;;;;;;;5.57;3.97;;;8.10;99.90;;;;;;5020959;28;20267;-69
2023/03/05 10:18:04;;;;;;;2.93;1.80;;;8.00;99.90;;;;;;5023674;28;20538;-70
2023/03/05 10:20:56;;;;;;;5.67;1.63;;;8.10;99.90;;;;;;5039514;28;20340;-70
2023/03/05 10:23:52;;;;;;;5.37;3.00;;;8.20;99.90;;;;;;5042785;28;20241;-70
2023/03/05 10:27:01;;;;;;;5.00;2.13;;;8.30;99.90;;;;;;5016430;28;20297;-70
2023/03/05 10:29:45;;;;;;;8.07;3.63;;;8.40;99.90;;;;;;5040635;28;20287;-70
2023/03/05 10:32:33;;;;;;;7.83;2.47;;;8.40;99.90;;;;;;5038871;28;20195;-70
2023/03/05 10:35:15;;;;;;;16.80;5.80;;;8.60;99.90;;;;;;5042076;28;20753;-71
2023/03/05 10:38:16;;;;;;;18.10;7.57;;;8.70;99.90;;;;;;5043148;28;20715;-72
2023/03/05 10:40:51;;;;;;;4.93;2.33;;;8.90;99.90;;;;;;5043832;28;20684;-71
2023/03/05 10:43:23;;;;;;;4.23;1.13;;;9.10;99.90;;;;;;5024564;28;20543;-71
2023/03/05 10:45:53;;;;;;;3.97;1.40;;;9.10;99.90;;;;;;5028124;28;20237;-71
2023/03/05 10:48:22;;;;;;;3.93;1.40;;;9.20;99.90;;;;;;5039919;28;20221;-71
2023/03/05 10:51:18;;;;;;;2.30;0.90;;;9.20;99.90;;;;;;5041141;28;20224;-70
2023/03/05 10:53:58;;;;;;;3.67;1.10;;;9.10;99.90;;;;;;5039530;28;20205;-70
2023/03/05 10:56:27;;;;;;;3.03;1.40;;;8.80;99.90;;;;;;5040576;28;20231;-70
2023/03/05 10:58:54;;;;;;;1.57;0.90;;;8.40;99.90;;;;;;5042759;28;21045;-71
2023/03/05 11:01:24;;;;;;;2.53;1.33;;;7.90;99.90;;;;;;5044780;28;20207;-70
2023/03/05 11:03:57;;;;;;;0.70;0.70;;;7.50;99.90;;;;;;5037837;28;20240;-70
2023/03/05 11:06:40;;;;;;;3.53;0.80;;;7.20;99.90;;;;;;5045021;28;20209;-70
2023/03/05 11:09:31;;;;;;;11.03;1.10;;;6.90;99.90;;;;;;5022969;28;20282;-70
2023/03/05 11:12:07;;;;;;;1.00;0.80;;;6.80;99.90;;;;;;5043262;28;20212;-73
2023/03/05 11:14:37;;;;;;;1.10;1.00;;;6.70;99.90;;;;;;5043554;28;20614;-69
2023/03/05 11:17:47;;;;;;;9.23;5.67;;;6.90;99.90;;;;;;5023022;28;20214;-72
2023/03/05 11:20:26;;;;;;;2.17;1.30;;;7.00;99.90;;;;;;5033814;28;20217;-70
2023/03/05 11:23:12;;;;;;;8.30;3.63;;;7.20;99.90;;;;;;5028999;28;20209;-69
2023/03/05 11:25:51;;;;;;;9.27;4.70;;;7.40;99.90;;;;;;5042009;28;20235;-70
2023/03/05 11:28:20;;;;;;;2.03;1.20;;;7.40;99.90;;;;;;5043903;28;20205;-73
2023/03/05 11:31:17;;;;;;;3.63;2.27;;;7.50;99.90;;;;;;5029853;28;20281;-70
2023/03/05 11:33:58;;;;;;;2.27;1.00;;;7.60;99.90;;;;;;5043046;28;20242;-71
2023/03/05 11:36:41;;;;;;;4.40;1.63;;;7.70;99.90;;;;;;5043448;28;20303;-70
2023/03/05 11:39:14;;;;;;;2.33;1.07;;;7.80;99.90;;;;;;5044125;28;20217;-74
2023/03/05 11:41:47;;;;;;;5.20;2.30;;;7.80;99.90;;;;;;5038990;28;20205;-71
2023/03/05 11:44:32;;;;;;;3.90;2.23;;;7.90;99.90;;;;;;5045202;28;20221;-70
2023/03/05 11:47:12;;;;;;;2.93;2.40;;;7.90;99.90;;;;;;5045432;28;20732;-73
2023/03/05 11:49:43;;;;;;;1.73;1.03;;;8.00;99.90;;;;;;5024118;28;20605;-71
2023/03/05 11:52:19;;;;;;;2.87;1.87;;;8.10;99.90;;;;;;5040694;28;20294;-72
2023/03/05 11:54:46;;;;;;;4.13;2.67;;;8.20;99.90;;;;;;5024619;28;21067;-73
2023/03/05 11:57:15;;;;;;;2.10;0.80;;;8.20;99.90;;;;;;5044137;28;20211;-71
2023/03/05 11:59:43;;;;;;;7.03;2.50;;;8.20;99.90;;;;;;5040783;28;20297;-73
2023/03/05 12:02:36;;;;;;;44.83;20.37;;;8.30;99.90;;;;;;5043973;28;20260;-70
2023/03/05 12:05:06;;;;;;;7.60;2.57;;;8.40;99.90;;;;;;5036819;28;20243;-70
2023/03/05 12:07:41;;;;;;;3.30;1.90;;;8.50;99.90;;;;;;5043038;28;20417;-71
2023/03/05 12:10:22;;;;;;;1.50;1.23;;;8.60;99.90;;;;;;5026738;28;20208;-71
2023/03/05 12:13:19;;;;;;;2.83;1.37;;;8.70;99.90;;;;;;5043921;28;20650;-69
2023/03/05 12:16:13;;;;;;;3.67;1.30;;;8.80;99.90;;;;;;5041516;28;20595;-71
2023/03/05 12:19:07;;;;;;;1.80;1.10;;;8.70;99.90;;;;;;5039241;28;20293;-71
2023/03/05 12:21:40;;;;;;;2.83;1.70;;;8.60;99.90;;;;;;5033268;28;20562;-71
2023/03/05 12:24:22;;;;;;;2.00;1.33;;;8.40;99.90;;;;;;5045169;28;20622;-72
2023/03/05 12:26:54;;;;;;;3.43;1.80;;;8.20;99.90;;;;;;5040707;28;20295;-69
2023/03/05 12:29:46;;;;;;;2.30;1.60;;;8.00;99.90;;;;;;5046485;28;20239;-70
2023/03/05 12:32:27;;;;;;;6.57;1.57;;;7.90;99.90;;;;;;5026933;28;20205;-71
2023/03/05 12:35:29;;;;;;;4.53;2.40;;;7.80;99.90;;;;;;5043863;28;20565;-70
2023/03/05 12:37:59;;;;;;;5.27;2.30;;;7.70;99.90;;;;;;5041638;28;20248;-70
2023/03/05 12:40:33;;;;;;;5.57;2.37;;;7.50;99.90;;;;;;5044473;28;20287;-70
2023/03/05 12:43:02;;;;;;;3.00;2.60;;;7.60;99.90;;;;;;5042088;28;20689;-71
2023/03/05 12:45:40;;;;;;;5.27;2.60;;;7.50;99.90;;;;;;5044680;28;20244;-70
2023/03/05 12:48:11;;;;;;;6.90;3.63;;;7.50;99.90;;;;;;5040702;28;20215;-70
2023/03/05 12:50:38;;;;;;;5.80;3.40;;;7.60;99.90;;;;;;5040673;28;20225;-71
2023/03/05 12:53:17;;;;;;;5.10;2.70;;;7.60;99.90;;;;;;5042533;28;20636;-71
2023/03/05 12:55:46;;;;;;;6.43;2.70;;;7.70;99.90;;;;;;5025185;28;20229;-70
2023/03/05 12:58:40;;;;;;;2.80;2.00;;;7.90;99.90;;;;;;5042572;28;20612;-69
2023/03/05 13:01:10;;;;;;;7.00;2.30;;;8.00;99.90;;;;;;5044384;28;20189;-70
2023/03/05 13:03:55;;;;;;;4.70;3.03;;;8.10;99.90;;;;;;5047374;28;20363;-70
2023/03/05 13:06:32;;;;;;;6.93;2.10;;;8.20;99.90;;;;;;5039664;28;20234;-72
2023/03/05 13:09:23;;;;;;;5.77;2.00;;;8.20;99.90;;;;;;5030012;28;20200;-70
2023/03/05 13:11:52;;;;;;;3.77;1.93;;;8.30;99.90;;;;;;5025886;28;20685;-69